createdAt,value
2023-02-19T00:01:09.007Z,66.58
2023-02-19T00:03:11.701Z,66.71
2023-02-19T00:05:14.277Z,66.30
2023-02-19T00:07:18.188Z,65.66
2023-02-19T00:09:21.538Z,66.10
2023-02-19T00:11:25.771Z,65.48
2023-02-19T00:13:28.387Z,65.25
2023-02-19T00:15:33.156Z,65.61
2023-02-19T00:17:35.738Z,65.31
2023-02-19T00:19:38.334Z,65.30
2023-02-19T00:21:40.880Z,65.36
2023-02-19T00:23:44.885Z,65.57
2023-02-19T00:25:47.426Z,65.69
2023-02-19T00:27:49.990Z,65.45
2023-02-19T00:29:52.880Z,65.70
2023-02-19T00:31:55.570Z,65.33
2023-02-19T00:34:00.234Z,66.10
2023-02-19T00:36:03.814Z,66.12
2023-02-19T00:38:06.512Z,65.89
2023-02-19T00:40:11.286Z,66.05
2023-02-19T00:42:13.843Z,65.72
2023-02-19T00:44:16.777Z,65.80
2023-02-19T00:46:21.027Z,65.75
2023-02-19T00:48:23.579Z,66.09
2023-02-19T00:50:26.100Z,65.81
2023-02-19T00:52:28.663Z,66.38
2023-02-19T00:54:31.731Z,65.94
2023-02-19T00:56:35.690Z,66.26
2023-02-19T00:58:38.931Z,66.42
2023-02-19T01:00:41.446Z,66.59
2023-02-19T01:02:44.001Z,66.22
2023-02-19T01:04:46.543Z,66.51
2023-02-19T01:06:49.610Z,65.89
2023-02-19T01:08:52.265Z,65.65
2023-02-19T01:10:54.967Z,65.79
2023-02-19T01:12:58.903Z,65.40
2023-02-19T01:15:01.407Z,65.37
2023-02-19T01:17:05.893Z,65.46
2023-02-19T01:19:08.851Z,65.58
2023-02-19T01:21:15.197Z,65.11
2023-02-19T01:23:17.754Z,65.63
2023-02-19T01:25:20.691Z,65.34
2023-02-19T01:27:23.218Z,65.50
2023-02-19T01:29:27.102Z,65.30
2023-02-19T01:31:30.305Z,65.45
2023-02-19T01:33:33.554Z,64.81
2023-02-19T01:35:39.840Z,65.12
2023-02-19T01:37:42.426Z,64.94
2023-02-19T01:39:44.984Z,65.44
2023-02-19T01:41:47.543Z,65.71
2023-02-19T01:44:02.136Z,65.33
2023-02-19T01:46:06.143Z,65.62
2023-02-19T01:48:13.064Z,65.27
2023-02-19T01:50:15.751Z,64.95
2023-02-19T01:52:25.764Z,64.58
2023-02-19T01:54:30.695Z,65.04
2023-02-19T01:56:35.220Z,64.58
2023-02-19T01:58:38.888Z,64.99
2023-02-19T02:00:41.770Z,64.95
2023-02-19T02:02:50.546Z,65.04
2023-02-19T02:04:53.324Z,64.68
2023-02-19T02:06:58.386Z,65.11
2023-02-19T02:09:19.190Z,64.74
2023-02-19T02:11:22.427Z,64.85
2023-02-19T02:13:25.165Z,65.32
2023-02-19T02:15:36.103Z,64.85
2023-02-19T02:17:52.610Z,65.33
2023-02-19T02:20:15.171Z,64.51
2023-02-19T02:22:21.769Z,65.29
2023-02-19T02:25:14.894Z,65.15
2023-02-19T02:27:30.151Z,64.61
2023-02-19T02:30:09.798Z,64.57
2023-02-19T02:32:14.440Z,63.92
2023-02-19T02:34:21.186Z,63.99
2023-02-19T02:36:29.964Z,64.24
2023-02-19T02:38:36.055Z,63.38
2023-02-19T02:40:43.195Z,63.90
2023-02-19T02:42:45.889Z,63.70
2023-02-19T02:45:08.501Z,63.75
2023-02-19T02:47:32.461Z,63.43
2023-02-19T02:49:56.823Z,64.08
2023-02-19T02:52:20.758Z,63.73
2023-02-19T02:54:47.367Z,63.99
2023-02-19T02:56:51.219Z,63.66
2023-02-19T02:58:56.395Z,64.17
2023-02-19T03:01:20.697Z,63.47
2023-02-19T03:03:28.228Z,63.01
2023-02-19T03:05:44.899Z,62.77
2023-02-19T03:07:52.757Z,62.40
2023-02-19T03:09:57.687Z,62.37
2023-02-19T03:12:21.697Z,62.34
2023-02-19T03:14:49.595Z,63.04
2023-02-19T03:17:12.786Z,62.29
2023-02-19T03:19:20.010Z,62.70
2023-02-19T03:21:24.894Z,62.51
2023-02-19T03:23:44.736Z,62.02
2023-02-19T03:26:14.397Z,62.47
2023-02-19T03:28:19.174Z,62.53
2023-02-19T03:30:24.222Z,62.74
2023-02-19T03:32:33.203Z,62.80
2023-02-19T03:34:42.460Z,62.76
2023-02-19T03:36:49.536Z,63.13
2023-02-19T03:38:57.983Z,63.10
2023-02-19T03:41:08.094Z,62.84
2023-02-19T03:43:19.548Z,63.44
2023-02-19T03:45:31.383Z,63.61
2023-02-19T03:47:36.973Z,63.66
2023-02-19T03:49:49.004Z,63.80
2023-02-19T03:51:55.587Z,63.75
2023-02-19T03:54:11.657Z,64.59
2023-02-19T03:56:22.073Z,64.23
2023-02-19T03:58:29.292Z,64.24
2023-02-19T04:00:39.457Z,63.87
2023-02-19T04:02:47.092Z,64.63
2023-02-19T04:04:55.940Z,64.08
2023-02-19T04:06:59.568Z,63.61
2023-02-19T04:09:08.093Z,63.33
2023-02-19T04:11:11.998Z,62.90
2023-02-19T04:13:20.241Z,63.19
2023-02-19T04:15:27.240Z,63.14
2023-02-19T04:17:34.071Z,63.37
2023-02-19T04:19:40.759Z,63.25
2023-02-19T04:21:47.173Z,63.81
2023-02-19T04:23:50.267Z,63.82
2023-02-19T04:25:57.139Z,64.22
2023-02-19T04:28:00.162Z,64.34
2023-02-19T04:30:02.768Z,64.75
2023-02-19T04:32:06.034Z,64.53
2023-02-19T04:34:08.607Z,64.68
2023-02-19T04:36:11.876Z,64.28
2023-02-19T04:38:15.760Z,64.30
2023-02-19T04:40:18.695Z,65.26
2023-02-19T04:42:21.234Z,65.51
2023-02-19T04:44:23.876Z,65.06
2023-02-19T04:46:26.477Z,64.90
2023-02-19T04:48:29.396Z,65.68
2023-02-19T04:50:31.983Z,65.01
2023-02-19T04:52:35.416Z,64.70
2023-02-19T04:54:39.331Z,65.20
2023-02-19T04:56:41.885Z,65.70
2023-02-19T04:58:45.708Z,66.26
2023-02-19T05:00:51.951Z,66.47
2023-02-19T05:02:54.495Z,65.94
2023-02-19T05:04:57.040Z,65.37
2023-02-19T05:06:59.661Z,65.65
2023-02-19T05:09:02.260Z,66.43
2023-02-19T05:11:07.526Z,66.75
2023-02-19T05:13:10.143Z,66.86
2023-02-19T05:15:12.720Z,66.89
2023-02-19T05:17:15.240Z,67.49
2023-02-19T05:19:17.792Z,66.78
2023-02-19T05:21:20.443Z,66.95
2023-02-19T05:23:23.019Z,66.63
2023-02-19T05:25:25.622Z,66.49
2023-02-19T05:27:31.610Z,66.73
2023-02-19T05:29:34.160Z,67.09
2023-02-19T05:31:36.781Z,67.48
2023-02-19T05:33:39.637Z,67.38
2023-02-19T05:35:43.726Z,66.91
2023-02-19T05:37:46.269Z,67.01
2023-02-19T05:39:49.831Z,66.91
2023-02-19T05:41:52.404Z,67.53
2023-02-19T05:43:57.119Z,67.17
2023-02-19T05:46:00.126Z,66.57
2023-02-19T05:48:02.976Z,67.55
2023-02-19T05:50:06.421Z,67.46
2023-02-19T05:52:09.022Z,67.51
2023-02-19T05:54:11.579Z,67.21
2023-02-19T05:56:26.510Z,67.49
2023-02-19T05:58:29.361Z,67.11
2023-02-19T06:00:34.219Z,67.74
2023-02-19T06:02:37.265Z,68.36
2023-02-19T06:04:39.836Z,68.73
2023-02-19T06:06:43.064Z,67.29
2023-02-19T06:08:49.625Z,68.11
2023-02-19T06:10:52.169Z,68.24
2023-02-19T06:12:55.318Z,66.76
2023-02-19T06:14:57.831Z,67.47
2023-02-19T06:17:01.717Z,68.12
2023-02-19T06:19:05.216Z,67.50
2023-02-19T06:21:09.953Z,67.24
2023-02-19T06:23:12.639Z,67.42
2023-02-19T06:25:15.293Z,67.02
2023-02-19T06:27:17.870Z,66.37
2023-02-19T06:29:20.433Z,66.75
2023-02-19T06:31:23.867Z,66.25
2023-02-19T06:33:28.890Z,66.40
2023-02-19T06:35:31.469Z,66.52
2023-02-19T06:37:34.041Z,66.57
2023-02-19T06:39:37.089Z,66.78
2023-02-19T06:41:39.649Z,66.56
2023-02-19T06:43:42.775Z,66.72
2023-02-19T06:45:45.569Z,66.76
2023-02-19T06:47:48.145Z,66.77
2023-02-19T06:49:52.056Z,66.11
2023-02-19T06:51:54.633Z,66.60
2023-02-19T06:53:57.310Z,66.27
2023-02-19T06:56:01.760Z,67.02
2023-02-19T06:58:04.323Z,67.10
2023-02-19T07:00:07.968Z,68.03
2023-02-19T07:02:12.132Z,68.22
2023-02-19T07:04:14.803Z,68.50
2023-02-19T07:06:19.614Z,68.39
2023-02-19T07:08:22.322Z,68.49
2023-02-19T07:10:24.934Z,67.88
2023-02-19T07:12:27.523Z,68.12
2023-02-19T07:14:30.553Z,66.39
2023-02-19T07:16:33.144Z,67.36
2023-02-19T07:18:36.328Z,67.40
2023-02-19T07:20:38.886Z,67.35
2023-02-19T07:22:42.769Z,67.74
2023-02-19T07:24:47.801Z,68.36
2023-02-19T07:26:50.662Z,68.70
2023-02-19T07:28:53.310Z,68.40
2023-02-19T07:31:00.653Z,68.45
2023-02-19T07:33:03.466Z,69.01
2023-02-19T07:35:06.660Z,68.65
2023-02-19T07:37:09.468Z,69.12
2023-02-19T07:39:15.592Z,69.54
2023-02-19T07:41:18.151Z,68.84
2023-02-19T07:43:21.309Z,68.38
2023-02-19T07:45:23.861Z,68.84
2023-02-19T07:47:26.535Z,68.33
2023-02-19T07:49:29.100Z,68.69
2023-02-19T07:51:31.628Z,67.82
2023-02-19T07:53:35.112Z,66.81
2023-02-19T07:55:39.014Z,67.08
2023-02-19T07:57:41.536Z,66.57
2023-02-19T07:59:44.075Z,65.37
2023-02-19T08:02:04.385Z,65.11
2023-02-19T08:04:06.935Z,65.06
2023-02-19T08:06:11.120Z,64.90
2023-02-19T08:08:15.539Z,65.08
2023-02-19T08:10:35.837Z,64.11
2023-02-19T08:12:57.178Z,64.30
2023-02-19T08:14:59.717Z,64.59
2023-02-19T08:17:03.241Z,64.23
2023-02-19T08:19:05.860Z,63.37
2023-02-19T08:21:08.645Z,63.61
2023-02-19T08:23:12.553Z,62.51
2023-02-19T08:25:15.211Z,63.11
2023-02-19T08:27:17.797Z,62.50
2023-02-19T08:29:21.678Z,62.63
2023-02-19T08:31:24.310Z,62.99
2023-02-19T08:33:26.908Z,64.14
2023-02-19T08:35:29.896Z,65.16
2023-02-19T08:37:32.431Z,65.36
2023-02-19T08:39:34.954Z,66.25
2023-02-19T08:41:37.483Z,66.25
2023-02-19T08:43:40.323Z,65.36
2023-02-19T08:45:47.237Z,65.02
2023-02-19T08:47:49.797Z,65.84
2023-02-19T08:49:52.352Z,66.56
2023-02-19T08:51:54.921Z,66.89
2023-02-19T08:53:57.516Z,67.48
2023-02-19T08:56:00.506Z,66.91
2023-02-19T08:58:03.089Z,67.43
2023-02-19T09:00:07.417Z,66.51
2023-02-19T09:02:12.731Z,67.12
2023-02-19T09:04:15.312Z,67.01
2023-02-19T09:06:20.408Z,65.83
2023-02-19T09:08:22.947Z,64.61
2023-02-19T09:10:25.553Z,65.18
2023-02-19T09:12:28.476Z,65.26
2023-02-19T09:14:33.085Z,65.27
2023-02-19T09:16:35.727Z,66.09
2023-02-19T09:18:39.665Z,66.45
2023-02-19T09:20:42.194Z,65.64
2023-02-19T09:22:44.768Z,63.91
2023-02-19T09:24:47.323Z,64.64
2023-02-19T09:26:50.102Z,64.16
2023-02-19T09:28:52.646Z,64.73
2023-02-19T09:30:55.634Z,63.86
2023-02-19T09:32:59.262Z,65.06
2023-02-19T09:35:03.247Z,64.55
2023-02-19T09:37:06.562Z,65.33
2023-02-19T09:39:12.572Z,66.00
2023-02-19T09:41:23.343Z,66.31
2023-02-19T09:43:28.848Z,66.44
2023-02-19T09:45:31.464Z,66.45
2023-02-19T09:47:35.302Z,67.47
2023-02-19T09:49:41.497Z,67.77
2023-02-19T09:51:49.040Z,68.98
2023-02-19T09:53:53.283Z,69.21
2023-02-19T09:55:56.689Z,70.10
2023-02-19T09:58:01.148Z,69.63
2023-02-19T10:00:10.621Z,69.68
2023-02-19T10:02:16.941Z,68.94
2023-02-19T10:04:19.498Z,69.97
2023-02-19T10:06:24.076Z,69.96
2023-02-19T10:08:28.203Z,68.80
2023-02-19T10:10:33.685Z,68.63
2023-02-19T10:12:36.482Z,67.35
2023-02-19T10:14:45.454Z,68.23
2023-02-19T10:16:50.118Z,65.34
2023-02-19T10:18:53.254Z,64.39
2023-02-19T10:20:57.627Z,64.11
2023-02-19T10:23:03.900Z,63.21
2023-02-19T10:25:08.434Z,62.86
2023-02-19T10:27:13.905Z,61.79
2023-02-19T10:29:16.444Z,62.72
2023-02-19T10:31:21.319Z,63.20
2023-02-19T10:33:24.750Z,64.46
2023-02-19T10:35:27.946Z,65.80
2023-02-19T10:37:30.806Z,66.03
2023-02-19T10:39:42.990Z,65.44
2023-02-19T10:41:46.981Z,66.12
2023-02-19T10:43:55.534Z,67.48
2023-02-19T10:46:00.579Z,68.74
2023-02-19T10:48:04.330Z,68.85
2023-02-19T10:50:08.746Z,69.87
2023-02-19T10:52:17.751Z,65.61
2023-02-19T10:54:25.127Z,65.73
2023-02-19T10:56:29.867Z,66.14
2023-02-19T10:58:34.439Z,67.60
2023-02-19T11:00:39.633Z,69.09
2023-02-19T11:02:43.684Z,69.09
2023-02-19T11:05:04.042Z,69.67
2023-02-19T11:07:11.213Z,69.75
2023-02-19T11:09:26.362Z,70.21
2023-02-19T11:11:32.993Z,69.40
2023-02-19T11:13:38.116Z,69.34
2023-02-19T11:15:42.265Z,68.87
2023-02-19T11:17:44.899Z,68.71
2023-02-19T11:19:48.566Z,68.97
2023-02-19T11:21:51.586Z,68.78
2023-02-19T11:23:54.256Z,68.19
2023-02-19T11:25:59.420Z,66.90
2023-02-19T11:28:07.224Z,67.36
2023-02-19T11:30:36.352Z,67.21
2023-02-19T11:32:39.097Z,67.70
2023-02-19T11:34:42.002Z,68.15
2023-02-19T11:36:44.646Z,68.58
2023-02-19T11:38:47.506Z,67.62
2023-02-19T11:40:58.850Z,67.74
2023-02-19T11:43:10.674Z,67.34
2023-02-19T11:45:26.853Z,68.13
2023-02-19T11:47:48.621Z,67.53
2023-02-19T11:50:01.174Z,67.68
2023-02-19T11:52:17.599Z,66.45
2023-02-19T11:54:34.095Z,64.68
2023-02-19T11:56:38.420Z,63.38
2023-02-19T11:58:52.485Z,63.40
2023-02-19T12:01:02.441Z,61.28
2023-02-19T12:03:32.422Z,60.40
2023-02-19T12:05:51.383Z,59.15
2023-02-19T12:08:27.683Z,59.25
2023-02-19T12:10:38.777Z,58.95
2023-02-19T12:13:04.945Z,59.25
2023-02-19T12:15:27.209Z,58.00
2023-02-19T12:17:47.907Z,58.44
2023-02-19T12:20:03.629Z,58.67
2023-02-19T12:22:27.814Z,57.60
2023-02-19T12:24:49.171Z,57.74
2023-02-19T12:27:13.328Z,57.87
2023-02-19T12:29:42.850Z,58.41
2023-02-19T12:32:02.924Z,58.79
2023-02-19T12:34:21.171Z,58.82
2023-02-19T12:36:34.852Z,57.70
2023-02-19T12:38:44.692Z,56.90
2023-02-19T12:40:58.583Z,57.21
2023-02-19T12:43:13.388Z,55.64
2023-02-19T12:45:21.387Z,55.16
2023-02-19T12:47:30.351Z,55.84
2023-02-19T12:49:37.031Z,55.77
2023-02-19T12:51:45.747Z,55.46
2023-02-19T12:53:53.585Z,56.37
2023-02-19T12:55:58.547Z,56.20
2023-02-19T12:58:05.355Z,57.14
2023-02-19T13:00:24.550Z,57.12
2023-02-19T13:02:35.066Z,57.64
2023-02-19T13:04:48.135Z,56.67
2023-02-19T13:06:57.413Z,57.32
2023-02-19T13:09:06.789Z,57.03
2023-02-19T13:11:15.081Z,57.52
2023-02-19T13:13:24.005Z,56.97
2023-02-19T13:15:34.510Z,57.48
2023-02-19T13:17:42.371Z,57.41
2023-02-19T13:19:47.894Z,57.69
2023-02-19T13:22:17.780Z,58.06
2023-02-19T13:24:26.048Z,57.79
2023-02-19T13:26:45.261Z,58.59
2023-02-19T13:29:00.623Z,58.74
2023-02-19T13:31:28.422Z,58.26
2023-02-19T13:33:54.126Z,58.33
2023-02-19T13:36:12.754Z,58.05
2023-02-19T13:38:17.202Z,57.68
2023-02-19T13:40:27.729Z,57.05
2023-02-19T13:42:34.248Z,56.49
2023-02-19T13:44:39.378Z,56.15
2023-02-19T13:46:44.302Z,55.56
2023-02-19T13:48:47.025Z,55.09
2023-02-19T13:50:49.598Z,55.24
2023-02-19T13:52:53.145Z,54.92
2023-02-19T13:55:44.098Z,53.85
2023-02-19T13:57:48.045Z,54.87
2023-02-19T13:59:51.275Z,55.61
2023-02-19T14:02:30.473Z,55.81
2023-02-19T14:04:44.775Z,55.52
2023-02-19T14:07:21.128Z,54.54
2023-02-19T14:09:47.754Z,54.30
2023-02-19T14:12:03.875Z,54.52
2023-02-19T14:14:27.445Z,54.38
2023-02-19T14:16:56.876Z,54.88
2023-02-19T14:18:59.930Z,54.52
2023-02-19T14:21:14.862Z,55.50
2023-02-19T14:23:18.680Z,56.03
2023-02-19T14:25:30.703Z,55.71
2023-02-19T14:27:33.403Z,56.13
2023-02-19T14:29:37.441Z,55.46
2023-02-19T14:31:40.894Z,55.97
2023-02-19T14:33:47.148Z,55.35
2023-02-19T14:35:54.654Z,55.48
2023-02-19T14:37:58.159Z,55.28
2023-02-19T14:40:00.994Z,55.97
2023-02-19T14:42:08.257Z,56.74
2023-02-19T14:44:19.844Z,57.11
2023-02-19T14:46:30.362Z,57.47
2023-02-19T14:48:37.674Z,58.16
2023-02-19T14:50:40.915Z,58.10
2023-02-19T14:52:46.784Z,58.98
2023-02-19T14:54:53.580Z,59.20
2023-02-19T14:56:56.910Z,60.56
2023-02-19T14:59:32.796Z,61.46
2023-02-19T15:01:36.818Z,60.55
2023-02-19T15:03:41.991Z,59.84
2023-02-19T15:05:45.508Z,60.18
2023-02-19T15:07:48.331Z,60.79
2023-02-19T15:09:54.474Z,61.62
2023-02-19T15:11:57.951Z,60.46
2023-02-19T15:14:03.732Z,59.42
2023-02-19T15:16:07.349Z,59.37
2023-02-19T15:18:19.159Z,59.32
2023-02-19T15:20:24.032Z,59.88
2023-02-19T15:22:29.166Z,59.69
2023-02-19T15:24:31.860Z,59.62
2023-02-19T15:26:36.784Z,60.26
2023-02-19T15:28:39.383Z,59.40
2023-02-19T15:30:41.958Z,59.67
2023-02-19T15:32:52.951Z,59.50
2023-02-19T15:34:58.192Z,60.02
2023-02-19T15:37:04.255Z,60.00
2023-02-19T15:39:06.812Z,59.96
2023-02-19T15:41:20.546Z,59.71
2023-02-19T15:43:26.834Z,60.38
2023-02-19T15:45:32.829Z,61.06
2023-02-19T15:47:41.017Z,62.07
2023-02-19T15:49:50.614Z,62.81
2023-02-19T15:52:00.396Z,62.40
2023-02-19T15:54:11.860Z,63.19
2023-02-19T15:56:21.764Z,63.27
2023-02-19T15:58:28.617Z,63.93
2023-02-19T16:00:38.968Z,64.46
2023-02-19T16:02:41.982Z,64.37
2023-02-19T16:04:46.031Z,64.23
2023-02-19T16:06:57.008Z,64.19
2023-02-19T16:09:05.672Z,64.73
2023-02-19T16:11:27.864Z,64.68
2023-02-19T16:13:32.957Z,65.01
2023-02-19T16:15:36.233Z,64.49
2023-02-19T16:17:38.810Z,65.09
2023-02-19T16:19:46.886Z,64.48
2023-02-19T16:21:49.654Z,64.92
2023-02-19T16:23:59.185Z,64.49
2023-02-19T16:26:03.445Z,65.13
2023-02-19T16:28:14.043Z,63.74
2023-02-19T16:30:28.362Z,64.86
2023-02-19T16:32:31.106Z,65.09
2023-02-19T16:34:40.289Z,65.07
2023-02-19T16:36:43.508Z,64.93
2023-02-19T16:39:18.672Z,64.46
2023-02-19T16:41:21.290Z,64.43
2023-02-19T16:43:32.826Z,65.21
2023-02-19T16:45:35.447Z,65.34
2023-02-19T16:47:41.503Z,65.71
2023-02-19T16:49:44.710Z,65.93
2023-02-19T16:51:48.000Z,66.50
2023-02-19T16:53:50.531Z,66.77
2023-02-19T16:55:54.427Z,66.98
2023-02-19T16:57:57.139Z,67.27
2023-02-19T16:59:59.674Z,66.94
2023-02-19T17:02:04.542Z,67.54
2023-02-19T17:04:10.619Z,68.23
2023-02-19T17:06:13.454Z,68.54
2023-02-19T17:08:33.726Z,69.35
2023-02-19T17:10:37.200Z,69.04
2023-02-19T17:12:41.155Z,68.99
2023-02-19T17:14:43.869Z,69.12
2023-02-19T17:16:46.489Z,69.44
2023-02-19T17:18:49.432Z,69.29
2023-02-19T17:20:57.669Z,68.89
2023-02-19T17:23:01.222Z,68.82
2023-02-19T17:25:03.788Z,68.63
2023-02-19T17:27:06.901Z,68.63
2023-02-19T17:29:15.135Z,67.96
2023-02-19T17:31:18.593Z,68.14
2023-02-19T17:33:21.267Z,67.84
2023-02-19T17:35:24.039Z,67.77
2023-02-19T17:37:26.600Z,68.07
2023-02-19T17:39:29.290Z,68.54
2023-02-19T17:41:31.860Z,67.71
2023-02-19T17:43:34.639Z,67.63
2023-02-19T17:45:38.675Z,67.74
2023-02-19T17:47:41.311Z,67.77
2023-02-19T17:49:44.234Z,65.67
2023-02-19T17:51:46.765Z,66.64
2023-02-19T17:53:50.182Z,65.85
2023-02-19T17:55:52.775Z,65.75
2023-02-19T17:57:55.352Z,66.25
2023-02-19T17:59:57.890Z,66.38
2023-02-19T18:02:03.146Z,66.86
2023-02-19T18:04:06.303Z,67.43
2023-02-19T18:06:08.977Z,68.04
2023-02-19T18:08:14.496Z,68.79
2023-02-19T18:10:19.131Z,68.85
2023-02-19T18:12:21.660Z,69.54
2023-02-19T18:14:24.195Z,69.86
2023-02-19T18:16:26.816Z,70.39
2023-02-19T18:18:31.206Z,71.11
2023-02-19T18:20:33.725Z,71.47
2023-02-19T18:22:36.345Z,71.65
2023-02-19T18:24:38.901Z,71.57
2023-02-19T18:26:41.453Z,71.39
2023-02-19T18:28:44.006Z,71.02
2023-02-19T18:30:46.834Z,70.73
2023-02-19T18:32:50.121Z,70.35
2023-02-19T18:34:59.136Z,70.46
2023-02-19T18:37:01.996Z,70.72
2023-02-19T18:39:04.643Z,70.54
2023-02-19T18:41:07.218Z,70.34
2023-02-19T18:43:09.755Z,69.81
2023-02-19T18:45:12.554Z,70.75
2023-02-19T18:47:15.624Z,70.17
2023-02-19T18:49:18.979Z,69.99
2023-02-19T18:51:24.321Z,70.82
2023-02-19T18:53:27.158Z,70.55
2023-02-19T18:55:29.788Z,70.84
2023-02-19T18:57:32.427Z,70.54
2023-02-19T18:59:34.945Z,71.46
2023-02-19T19:01:37.785Z,71.11
2023-02-19T19:03:40.440Z,71.35
2023-02-19T19:05:43.035Z,71.93
2023-02-19T19:07:46.894Z,71.96
2023-02-19T19:09:49.613Z,72.28
2023-02-19T19:11:52.141Z,72.28
2023-02-19T19:13:54.780Z,72.19
2023-02-19T19:15:58.133Z,71.52
2023-02-19T19:18:00.716Z,71.07
2023-02-19T19:20:03.481Z,70.62
2023-02-19T19:22:06.156Z,71.27
2023-02-19T19:24:10.683Z,70.66
2023-02-19T19:26:13.892Z,70.60
2023-02-19T19:28:17.107Z,71.70
2023-02-19T19:30:20.909Z,72.16
2023-02-19T19:32:23.544Z,72.30
2023-02-19T19:34:26.234Z,71.49
2023-02-19T19:36:28.946Z,71.47
2023-02-19T19:38:31.464Z,71.59
2023-02-19T19:40:35.367Z,71.53
2023-02-19T19:42:37.961Z,71.63
2023-02-19T19:44:40.490Z,71.92
2023-02-19T19:46:46.386Z,72.18
2023-02-19T19:48:49.881Z,71.88
2023-02-19T19:50:52.440Z,72.24
2023-02-19T19:52:54.959Z,71.51
2023-02-19T19:54:58.250Z,72.03
2023-02-19T19:57:03.122Z,71.49
2023-02-19T19:59:05.674Z,71.63
2023-02-19T20:01:08.278Z,71.12
2023-02-19T20:03:10.800Z,71.28
2023-02-19T20:05:13.932Z,70.90
2023-02-19T20:07:16.781Z,71.11
2023-02-19T20:09:19.784Z,69.71
2023-02-19T20:11:22.369Z,69.43
2023-02-19T20:13:28.684Z,69.34
2023-02-19T20:15:31.551Z,69.02
2023-02-19T20:17:34.117Z,67.79
2023-02-19T20:19:36.697Z,67.84
2023-02-19T20:21:39.314Z,67.29
2023-02-19T20:23:44.284Z,67.71
2023-02-19T20:25:46.824Z,67.72
2023-02-19T20:27:49.700Z,65.77
2023-02-19T20:29:53.713Z,66.32
2023-02-19T20:31:59.474Z,66.80
2023-02-19T20:34:02.100Z,66.45
2023-02-19T20:36:05.231Z,66.67
2023-02-19T20:38:07.850Z,66.82
2023-02-19T20:40:12.507Z,66.60
2023-02-19T20:42:17.011Z,66.46
2023-02-19T20:44:20.475Z,67.06
2023-02-19T20:46:24.407Z,66.90
2023-02-19T20:48:26.973Z,67.29
2023-02-19T20:50:29.519Z,66.79
2023-02-19T20:52:32.085Z,67.37
2023-02-19T20:54:36.028Z,68.05
2023-02-19T20:56:38.734Z,68.42
2023-02-19T20:58:42.967Z,68.78
2023-02-19T21:00:46.350Z,68.20
2023-02-19T21:02:50.265Z,68.30
2023-02-19T21:04:52.831Z,68.79
2023-02-19T21:06:55.432Z,68.39
2023-02-19T21:08:58.028Z,68.70
2023-02-19T21:11:00.540Z,68.92
2023-02-19T21:13:03.084Z,69.53
2023-02-19T21:15:06.582Z,69.14
2023-02-19T21:17:09.661Z,69.88
2023-02-19T21:19:13.800Z,69.47
2023-02-19T21:21:18.500Z,69.78
2023-02-19T21:23:21.068Z,70.32
2023-02-19T21:25:23.640Z,69.96
2023-02-19T21:27:26.173Z,70.31
2023-02-19T21:29:28.743Z,69.94
2023-02-19T21:31:39.560Z,70.00
2023-02-19T21:33:43.045Z,69.73
2023-02-19T21:35:47.157Z,69.65
2023-02-19T21:37:49.844Z,69.73
2023-02-19T21:39:52.748Z,69.58
2023-02-19T21:41:58.471Z,69.85
2023-02-19T21:44:01.081Z,69.61
2023-02-19T21:46:03.673Z,69.43
2023-02-19T21:48:08.625Z,70.18
2023-02-19T21:50:11.772Z,70.55
2023-02-19T21:52:15.664Z,70.07
2023-02-19T21:54:21.080Z,70.19
2023-02-19T21:56:24.951Z,70.53
2023-02-19T21:58:27.796Z,70.13
2023-02-19T22:00:31.375Z,70.12
2023-02-19T22:02:34.435Z,69.97
2023-02-19T22:04:36.995Z,70.00
2023-02-19T22:06:40.450Z,70.49
2023-02-19T22:08:44.938Z,70.38
2023-02-19T22:10:47.605Z,69.80
2023-02-19T22:12:50.177Z,69.68
2023-02-19T22:14:52.808Z,70.06
2023-02-19T22:16:55.350Z,70.06
2023-02-19T22:18:59.790Z,69.88
2023-02-19T22:21:03.712Z,69.71
2023-02-19T22:23:07.060Z,70.23
2023-02-19T22:25:10.937Z,70.29
2023-02-19T22:27:13.493Z,70.42
2023-02-19T22:29:16.430Z,69.36
2023-02-19T22:31:20.573Z,69.07
2023-02-19T22:33:23.450Z,69.08
2023-02-19T22:35:26.964Z,69.66
2023-02-19T22:37:29.944Z,69.49
2023-02-19T22:39:32.477Z,69.05
2023-02-19T22:41:36.419Z,68.92
2023-02-19T22:43:39.120Z,69.30
2023-02-19T22:45:41.717Z,69.77
2023-02-19T22:47:46.808Z,69.27
2023-02-19T22:49:49.336Z,68.07
2023-02-19T22:51:55.346Z,67.74
2023-02-19T22:54:00.054Z,67.84
2023-02-19T22:56:02.962Z,68.21
2023-02-19T22:58:06.880Z,67.58
2023-02-19T23:00:16.427Z,68.14
2023-02-19T23:02:18.961Z,67.20
2023-02-19T23:04:24.629Z,68.10
2023-02-19T23:06:29.011Z,68.32
2023-02-19T23:08:31.571Z,68.26
2023-02-19T23:10:34.362Z,68.40
2023-02-19T23:12:37.720Z,68.69
2023-02-19T23:14:41.636Z,68.67
2023-02-19T23:16:44.343Z,69.13
2023-02-19T23:18:48.002Z,68.90
2023-02-19T23:20:50.566Z,68.40
2023-02-19T23:22:53.121Z,68.47
2023-02-19T23:24:55.798Z,67.79
2023-02-19T23:26:59.639Z,68.50
2023-02-19T23:29:02.287Z,68.37
2023-02-19T23:31:06.485Z,68.51
2023-02-19T23:33:09.128Z,68.54
2023-02-19T23:35:11.865Z,68.20
2023-02-19T23:37:14.999Z,68.44
2023-02-19T23:39:20.282Z,68.41
2023-02-19T23:41:22.835Z,68.69
2023-02-19T23:43:25.433Z,69.30
2023-02-19T23:45:27.985Z,69.54
2023-02-19T23:47:31.920Z,69.37
2023-02-19T23:49:34.429Z,69.51
2023-02-19T23:51:37.058Z,69.12
2023-02-19T23:53:39.634Z,68.01
2023-02-19T23:55:42.195Z,68.50
2023-02-19T23:57:44.745Z,69.04
2023-02-19T23:59:49.018Z,68.89
